Time,TemperatureF,DewpointF,PressureIn,WindDirection,WindDirectionDegrees,WindSpeedMPH,WindSpeedGustMPH,Humidity,HourlyPrecipIn,Conditions,Clouds,dailyrainin,SolarRadiationWatts/m^2,SoftwareType,DateUTC
2013-02-17 00:00:00,32.1,25.4,29.83,NNW,329,5.0,8.0,76,0.00,,---,0.00,0.00,VWS V14.01,2013-02-17 06:00:00,
2013-02-17 00:03:00,31.9,25.2,29.83,SSW,206,3.0,5.0,76,0.00,,---,0.00,0.00,VWS V14.01,2013-02-17 06:03:00,
2013-02-17 00:05:00,31.9,25.2,29.83,North,350,5.0,6.0,76,0.00,,---,0.00,0.00,VWS V14.01,2013-02-17 06:05:00,
2013-02-17 00:08:00,31.8,25.4,29.83,North,0,5.0,6.0,77,0.00,,---,0.00,0.00,VWS V14.01,2013-02-17 06:08:00,
2013-02-17 00:10:00,31.6,25.2,29.83,WNW,294,6.0,6.0,77,0.00,,---,0.00,0.00,VWS V14.01,2013-02-17 06:10:00,
2013-02-17 00:13:00,31.6,25.2,29.82,West,263,2.0,8.0,77,0.00,,---,0.00,0.00,VWS V14.01,2013-02-17 06:13:00,
2013-02-17 00:15:00,31.6,25.2,29.82,NW,306,3.0,8.0,77,0.00,,---,0.00,0.00,VWS V14.01,2013-02-17 06:15:00,
2013-02-17 00:18:00,31.5,25.4,29.82,NW,323,3.0,5.0,78,0.00,,---,0.00,0.00,VWS V14.01,2013-02-17 06:18:00,
2013-02-17 00:20:00,31.5,25.4,29.82,South,188,6.0,6.0,78,0.00,,---,0.00,0.00,VWS V14.01,2013-02-17 06:20:00,
2013-02-17 00:24:00,31.5,25.4,29.82,SE,133,6.0,10.0,78,0.00,,---,0.00,0.00,VWS V14.01,2013-02-17 06:24:00,
2013-02-17 00:25:00,31.5,25.4,29.82,NNW,347,10.0,10.0,78,0.00,,---,0.00,0.00,VWS V14.01,2013-02-17 06:25:00,
2013-02-17 00:29:00,31.3,25.2,29.82,North,0,6.0,10.0,78,0.00,,---,0.00,0.00,VWS V14.01,2013-02-17 06:29:00,
2013-02-17 00:30:00,31.3,25.2,29.82,NNW,342,4.0,10.0,78,0.00,,---,0.00,0.00,VWS V14.01,2013-02-17 06:30:00,
2013-02-17 00:34:00,31.2,25.1,29.82,NNW,344,7.0,7.0,78,0.00,,---,0.00,0.00,VWS V14.01,2013-02-17 06:34:00,
2013-02-17 00:35:00,31.2,25.1,29.82,South,182,3.0,7.0,78,0.00,,---,0.00,0.00,VWS V14.01,2013-02-17 06:35:00,
2013-02-17 00:39:00,31.2,25.1,29.82,NW,305,4.0,7.0,78,0.00,,---,0.00,0.00,VWS V14.01,2013-02-17 06:39:00,
2013-02-17 00:40:00,31.2,25.1,29.82,NW,305,4.0,7.0,78,0.00,,---,0.00,0.00,VWS V14.01,2013-02-17 06:40:00,
2013-02-17 00:44:00,31.0,25.3,29.82,NW,312,7.0,7.0,79,0.00,,---,0.00,0.00,VWS V14.01,2013-02-17 06:44:00,
2013-02-17 00:45:00,31.0,25.3,29.82,NW,312,7.0,7.0,79,0.00,,---,0.00,0.00,VWS V14.01,2013-02-17 06:45:00,
2013-02-17 00:49:00,30.9,25.2,29.82,WSW,254,4.0,6.0,79,0.00,,---,0.00,0.00,VWS V14.01,2013-02-17 06:49:00,
2013-02-17 00:50:00,30.9,25.2,29.82,NNW,344,6.0,7.0,79,0.00,,---,0.00,0.00,VWS V14.01,2013-02-17 06:50:00,
2013-02-17 00:54:00,30.7,25.0,29.82,North,0,3.0,3.0,79,0.00,,---,0.00,0.00,VWS V14.01,2013-02-17 06:54:00,
2013-02-17 00:55:00,30.7,25.0,29.82,North,0,3.0,6.0,79,0.00,,---,0.00,0.00,VWS V14.01,2013-02-17 06:55:00,
2013-02-17 00:59:00,30.6,24.9,29.82,NNW,344,5.0,5.0,79,0.00,,---,0.00,0.00,VWS V14.01,2013-02-17 06:59:00,
2013-02-17 01:00:00,30.6,24.9,29.82,SE,140,5.0,5.0,79,0.00,,---,0.00,0.00,VWS V14.01,2013-02-17 07:00:00,
2013-02-17 01:04:00,30.4,25.0,29.82,NW,322,6.0,6.0,80,0.00,,---,0.00,0.00,VWS V14.01,2013-02-17 07:04:00,
2013-02-17 01:05:00,30.4,24.7,29.82,South,188,5.0,6.0,79,0.00,,---,0.00,0.00,VWS V14.01,2013-02-17 07:05:00,
2013-02-17 01:09:00,30.6,25.2,29.82,West,261,5.0,8.0,80,0.00,,---,0.00,0.00,VWS V14.01,2013-02-17 07:09:00,
2013-02-17 01:10:00,30.6,25.2,29.82,WSW,256,5.0,8.0,80,0.00,,---,0.00,0.00,VWS V14.01,2013-02-17 07:10:00,
2013-02-17 01:14:00,30.4,25.0,29.81,NW,319,7.0,7.0,80,0.00,,---,0.00,0.00,VWS V14.01,2013-02-17 07:14:00,
2013-02-17 01:15:00,30.4,25.0,29.81,NNW,329,5.0,8.0,80,0.00,,---,0.00,0.00,VWS V14.01,2013-02-17 07:15:00,
2013-02-17 01:19:00,30.3,24.9,29.81,North,0,5.0,6.0,80,0.00,,---,0.00,0.00,VWS V14.01,2013-02-17 07:19:00,
2013-02-17 01:20:00,30.3,24.9,29.81,NNW,328,5.0,7.0,80,0.00,,---,0.00,0.00,VWS V14.01,2013-02-17 07:20:00,
2013-02-17 01:25:00,30.3,24.9,29.81,North,0,3.0,8.0,80,0.00,,---,0.00,0.00,VWS V14.01,2013-02-17 07:25:00,
2013-02-17 01:30:00,30.3,24.9,29.81,North,352,3.0,5.0,80,0.00,,---,0.00,0.00,VWS V14.01,2013-02-17 07:30:00,
2013-02-17 01:35:00,30.1,24.7,29.81,North,350,6.0,7.0,80,0.00,,---,0.00,0.00,VWS V14.01,2013-02-17 07:35:00,
2013-02-17 01:40:00,30.0,24.9,29.81,North,359,3.0,5.0,81,0.00,,---,0.00,0.00,VWS V14.01,2013-02-17 07:40:00,
2013-02-17 01:45:00,29.8,25.0,29.80,NW,319,6.0,6.0,82,0.00,,---,0.00,0.00,VWS V14.01,2013-02-17 07:45:00,
2013-02-17 01:50:00,30.0,25.2,29.80,North,0,2.0,4.0,82,0.00,,---,0.00,0.00,VWS V14.01,2013-02-17 07:50:00,
2013-02-17 01:55:00,30.0,25.2,29.80,NW,315,2.0,6.0,82,0.00,,---,0.00,0.00,VWS V14.01,2013-02-17 07:55:00,
2013-02-17 02:00:00,29.8,25.0,29.80,SSW,192,7.0,8.0,82,0.00,,---,0.00,0.00,VWS V14.01,2013-02-17 08:00:00,
2013-02-17 02:05:00,30.0,25.2,29.80,North,353,6.0,8.0,82,0.00,,---,0.00,0.00,VWS V14.01,2013-02-17 08:05:00,
2013-02-17 02:10:00,30.0,25.2,29.80,NW,313,3.0,8.0,82,0.00,,---,0.00,0.00,VWS V14.01,2013-02-17 08:10:00,
2013-02-17 02:11:00,30.0,25.2,29.80,NNW,332,4.0,6.0,82,0.00,,---,0.00,0.00,VWS V14.01,2013-02-17 08:11:00,
2013-02-17 02:15:00,30.0,25.2,29.79,North,353,5.0,7.0,82,0.00,,---,0.00,0.00,VWS V14.01,2013-02-17 08:15:00,
2013-02-17 02:16:00,30.0,25.2,29.79,North,0,3.0,7.0,82,0.00,,---,0.00,0.00,VWS V14.01,2013-02-17 08:16:00,
2013-02-17 02:20:00,30.0,25.2,29.79,North,0,4.0,7.0,82,0.00,,---,0.00,0.00,VWS V14.01,2013-02-17 08:20:00,
2013-02-17 02:21:00,30.0,25.2,29.79,SSE,167,5.0,6.0,82,0.00,,---,0.00,0.00,VWS V14.01,2013-02-17 08:21:00,
2013-02-17 02:25:00,30.0,25.2,29.79,SSE,150,7.0,8.0,82,0.00,,---,0.00,0.00,VWS V14.01,2013-02-17 08:25:00,
2013-02-17 02:26:00,30.0,25.2,29.79,North,0,6.0,7.0,82,0.00,,---,0.00,0.00,VWS V14.01,2013-02-17 08:26:00,
2013-02-17 02:30:00,30.0,25.5,29.79,North,0,5.0,7.0,83,0.00,,---,0.00,0.00,VWS V14.01,2013-02-17 08:30:00,
2013-02-17 02:31:00,30.0,25.5,29.79,WSW,251,7.0,7.0,83,0.00,,---,0.00,0.00,VWS V14.01,2013-02-17 08:31:00,
2013-02-17 02:35:00,30.0,25.5,29.79,WNW,295,7.0,8.0,83,0.00,,---,0.00,0.00,VWS V14.01,2013-02-17 08:35:00,
2013-02-17 02:36:00,30.0,25.5,29.79,North,0,6.0,11.0,83,0.00,,---,0.00,0.00,VWS V14.01,2013-02-17 08:36:00,
2013-02-17 02:40:00,30.0,25.5,29.79,NW,304,11.0,11.0,83,0.00,,---,0.00,0.00,VWS V14.01,2013-02-17 08:40:00,
2013-02-17 02:41:00,30.0,25.5,29.79,North,0,10.0,12.0,83,0.00,,---,0.00,0.00,VWS V14.01,2013-02-17 08:41:00,
2013-02-17 02:45:00,30.0,25.8,29.78,NW,318,11.0,12.0,84,0.00,,---,0.00,0.00,VWS V14.01,2013-02-17 08:45:00,
2013-02-17 02:46:00,30.1,25.6,29.78,NNW,337,10.0,11.0,83,0.00,,---,0.00,0.00,VWS V14.01,2013-02-17 08:46:00,
2013-02-17 02:50:00,30.3,26.1,29.78,NW,323,12.0,12.0,84,0.00,,---,0.00,0.00,VWS V14.01,2013-02-17 08:50:00,
2013-02-17 02:51:00,30.4,26.1,29.78,WNW,282,10.0,13.0,84,0.00,,---,0.00,0.00,VWS V14.01,2013-02-17 08:51:00,
2013-02-17 02:55:00,30.4,25.9,29.78,NNW,346,12.0,14.0,83,0.00,,---,0.00,0.00,VWS V14.01,2013-02-17 08:55:00,
2013-02-17 02:56:00,30.3,25.8,29.78,NNW,328,13.0,16.0,83,0.00,,---,0.00,0.00,VWS V14.01,2013-02-17 08:56:00,
2013-02-17 03:00:00,30.4,26.1,29.78,North,0,11.0,16.0,84,0.00,,---,0.00,0.00,VWS V14.01,2013-02-17 09:00:00,
2013-02-17 03:01:00,30.4,25.9,29.78,NW,323,12.0,13.0,83,0.00,,---,0.00,0.00,VWS V14.01,2013-02-17 09:01:00,
2013-02-17 03:05:00,30.4,26.1,29.78,North,0,12.0,13.0,84,0.00,,---,0.00,0.00,VWS V14.01,2013-02-17 09:05:00,
2013-02-17 03:06:00,30.4,25.9,29.78,SSW,198,10.0,12.0,83,0.00,,---,0.00,0.00,VWS V14.01,2013-02-17 09:06:00,
2013-02-17 03:10:00,30.6,26.4,29.78,North,0,6.0,12.0,84,0.00,,---,0.00,0.00,VWS V14.01,2013-02-17 09:10:00,
2013-02-17 03:12:00,30.7,26.5,29.78,North,356,9.0,11.0,84,0.00,,---,0.00,0.00,VWS V14.01,2013-02-17 09:12:00,
2013-02-17 03:15:00,30.7,26.2,29.78,NW,309,7.0,12.0,83,0.00,,---,0.00,0.00,VWS V14.01,2013-02-17 09:15:00,
2013-02-17 03:17:00,30.7,26.2,29.78,North,0,10.0,12.0,83,0.00,,---,0.00,0.00,VWS V14.01,2013-02-17 09:17:00,
2013-02-17 03:20:00,30.7,26.2,29.78,North,357,10.0,12.0,83,0.00,,---,0.00,0.00,VWS V14.01,2013-02-17 09:20:00,
2013-02-17 03:22:00,30.7,26.2,29.78,NNW,343,9.0,11.0,83,0.00,,---,0.00,0.00,VWS V14.01,2013-02-17 09:22:00,
2013-02-17 03:25:00,30.6,26.1,29.78,SSE,168,6.0,12.0,83,0.00,,---,0.00,0.00,VWS V14.01,2013-02-17 09:25:00,
2013-02-17 03:27:00,30.6,26.1,29.78,NW,315,5.0,9.0,83,0.00,,---,0.00,0.00,VWS V14.01,2013-02-17 09:27:00,
2013-02-17 03:30:00,30.6,26.1,29.78,NW,315,6.0,9.0,83,0.00,,---,0.00,0.00,VWS V14.01,2013-02-17 09:30:00,
2013-02-17 03:32:00,30.6,26.1,29.78,North,0,7.0,9.0,83,0.00,,---,0.00,0.00,VWS V14.01,2013-02-17 09:32:00,
2013-02-17 03:35:00,30.6,26.1,29.78,South,171,8.0,9.0,83,0.00,,---,0.00,0.00,VWS V14.01,2013-02-17 09:35:00,
2013-02-17 03:37:00,30.6,26.1,29.78,North,349,8.0,10.0,83,0.00,,---,0.00,0.00,VWS V14.01,2013-02-17 09:37:00,
2013-02-17 03:40:00,30.6,25.8,29.78,North,356,8.0,10.0,82,0.00,,---,0.00,0.00,VWS V14.01,2013-02-17 09:40:00,
2013-02-17 03:42:00,30.6,25.8,29.78,NNW,328,7.0,10.0,82,0.00,,---,0.00,0.00,VWS V14.01,2013-02-17 09:42:00,
2013-02-17 03:45:00,30.4,25.6,29.78,NW,311,7.0,10.0,82,0.00,,---,0.00,0.00,VWS V14.01,2013-02-17 09:45:00,
2013-02-17 03:47:00,30.3,25.5,29.78,North,0,8.0,9.0,82,0.00,,---,0.00,0.00,VWS V14.01,2013-02-17 09:47:00,
2013-02-17 03:50:00,30.1,25.3,29.78,WSW,240,7.0,9.0,82,0.00,,---,0.00,0.00,VWS V14.01,2013-02-17 09:50:00,
2013-02-17 03:52:00,30.1,25.6,29.78,North,356,6.0,8.0,83,0.00,,---,0.00,0.00,VWS V14.01,2013-02-17 09:52:00,
2013-02-17 03:55:00,30.1,25.6,29.78,North,0,7.0,10.0,83,0.00,,---,0.00,0.00,VWS V14.01,2013-02-17 09:55:00,
2013-02-17 03:57:00,30.0,25.5,29.78,North,0,8.0,11.0,83,0.00,,---,0.00,0.00,VWS V14.01,2013-02-17 09:57:00,
2013-02-17 04:00:00,30.0,25.5,29.77,North,0,8.0,11.0,83,0.00,,---,0.00,0.00,VWS V14.01,2013-02-17 10:00:00,
2013-02-17 04:03:00,29.7,25.2,29.77,NW,325,10.0,11.0,83,0.00,,---,0.00,0.00,VWS V14.01,2013-02-17 10:03:00,
2013-02-17 04:05:00,29.7,25.2,29.77,North,353,8.0,11.0,83,0.00,,---,0.00,0.00,VWS V14.01,2013-02-17 10:05:00,
2013-02-17 04:08:00,29.5,24.7,29.77,South,186,7.0,11.0,82,0.00,,---,0.00,0.00,VWS V14.01,2013-02-17 10:08:00,
2013-02-17 04:10:00,29.5,25.0,29.77,North,354,7.0,11.0,83,0.00,,---,0.00,0.00,VWS V14.01,2013-02-17 10:10:00,
2013-02-17 04:13:00,29.3,24.5,29.77,North,0,10.0,11.0,82,0.00,,---,0.00,0.00,VWS V14.01,2013-02-17 10:13:00,
2013-02-17 04:15:00,29.3,24.8,29.78,North,0,8.0,11.0,83,0.00,,---,0.00,0.00,VWS V14.01,2013-02-17 10:15:00,
2013-02-17 04:18:00,29.3,24.8,29.78,North,0,10.0,10.0,83,0.00,,---,0.00,0.00,VWS V14.01,2013-02-17 10:18:00,
2013-02-17 04:20:00,29.3,24.8,29.78,NW,306,10.0,11.0,83,0.00,,---,0.00,0.00,VWS V14.01,2013-02-17 10:20:00,
2013-02-17 04:23:00,29.0,24.5,29.78,NW,326,8.0,12.0,83,0.00,,---,0.00,0.00,VWS V14.01,2013-02-17 10:23:00,
2013-02-17 04:25:00,29.0,24.5,29.78,North,0,8.0,12.0,83,0.00,,---,0.00,0.00,VWS V14.01,2013-02-17 10:25:00,
2013-02-17 04:28:00,29.0,24.5,29.77,NNW,340,9.0,11.0,83,0.00,,---,0.00,0.00,VWS V14.01,2013-02-17 10:28:00,
2013-02-17 04:30:00,28.8,24.3,29.77,NNW,347,8.0,11.0,83,0.00,,---,0.00,0.00,VWS V14.01,2013-02-17 10:30:00,
2013-02-17 04:33:00,28.8,24.6,29.77,NNW,336,8.0,10.0,84,0.00,,---,0.00,0.00,VWS V14.01,2013-02-17 10:33:00,
2013-02-17 04:35:00,28.8,24.6,29.77,WNW,284,8.0,10.0,84,0.00,,---,0.00,0.00,VWS V14.01,2013-02-17 10:35:00,
2013-02-17 04:38:00,29.0,24.8,29.77,North,0,8.0,11.0,84,0.00,,---,0.00,0.00,VWS V14.01,2013-02-17 10:38:00,
2013-02-17 04:40:00,29.0,24.8,29.77,North,0,10.0,11.0,84,0.00,,---,0.00,0.00,VWS V14.01,2013-02-17 10:40:00,
2013-02-17 04:43:00,29.0,24.8,29.76,WNW,289,8.0,11.0,84,0.00,,---,0.00,0.00,VWS V14.01,2013-02-17 10:43:00,
2013-02-17 04:45:00,29.0,24.8,29.76,North,354,10.0,11.0,84,0.00,,---,0.00,0.00,VWS V14.01,2013-02-17 10:45:00,
2013-02-17 04:49:00,29.3,25.1,29.76,North,0,9.0,11.0,84,0.00,,---,0.00,0.00,VWS V14.01,2013-02-17 10:49:00,
2013-02-17 04:50:00,29.3,25.1,29.76,North,356,10.0,11.0,84,0.00,,---,0.00,0.00,VWS V14.01,2013-02-17 10:50:00,
2013-02-17 04:54:00,29.1,24.6,29.76,NNW,342,9.0,11.0,83,0.00,,---,0.00,0.00,VWS V14.01,2013-02-17 10:54:00,
2013-02-17 04:55:00,29.1,24.6,29.76,SW,219,10.0,11.0,83,0.00,,---,0.00,0.00,VWS V14.01,2013-02-17 10:55:00,
2013-02-17 04:59:00,29.0,24.8,29.77,North,353,10.0,13.0,84,0.00,,---,0.00,0.00,VWS V14.01,2013-02-17 10:59:00,
2013-02-17 05:00:00,29.0,24.8,29.77,North,354,12.0,13.0,84,0.00,,---,0.00,0.00,VWS V14.01,2013-02-17 11:00:00,
2013-02-17 05:04:00,29.0,24.8,29.77,NW,322,10.0,12.0,84,0.00,,---,0.00,0.00,VWS V14.01,2013-02-17 11:04:00,
2013-02-17 05:05:00,29.0,24.8,29.77,WNW,289,7.0,12.0,84,0.00,,---,0.00,0.00,VWS V14.01,2013-02-17 11:05:00,
2013-02-17 05:09:00,29.0,24.5,29.77,North,356,9.0,12.0,83,0.00,,---,0.00,0.00,VWS V14.01,2013-02-17 11:09:00,
2013-02-17 05:10:00,29.0,24.5,29.77,North,356,9.0,12.0,83,0.00,,---,0.00,0.00,VWS V14.01,2013-02-17 11:10:00,
2013-02-17 05:14:00,28.8,24.3,29.77,South,185,11.0,11.0,83,0.00,,---,0.00,0.00,VWS V14.01,2013-02-17 11:14:00,
2013-02-17 05:15:00,28.8,24.3,29.77,South,185,11.0,11.0,83,0.00,,---,0.00,0.00,VWS V14.01,2013-02-17 11:15:00,
2013-02-17 05:19:00,28.8,24.3,29.77,NNW,339,9.0,9.0,83,0.00,,---,0.00,0.00,VWS V14.01,2013-02-17 11:19:00,
2013-02-17 05:20:00,28.8,24.3,29.77,NW,304,7.0,12.0,83,0.00,,---,0.00,0.00,VWS V14.01,2013-02-17 11:20:00,
2013-02-17 05:24:00,28.8,24.3,29.77,North,0,8.0,13.0,83,0.00,,---,0.00,0.00,VWS V14.01,2013-02-17 11:24:00,
2013-02-17 05:25:00,28.8,24.3,29.77,North,0,11.0,13.0,83,0.00,,---,0.00,0.00,VWS V14.01,2013-02-17 11:25:00,
2013-02-17 05:29:00,28.8,24.3,29.77,SW,227,12.0,12.0,83,0.00,,---,0.00,0.00,VWS V14.01,2013-02-17 11:29:00,
2013-02-17 05:30:00,28.8,24.3,29.77,NNW,344,7.0,13.0,83,0.00,,---,0.00,0.00,VWS V14.01,2013-02-17 11:30:00,
2013-02-17 05:34:00,28.7,24.2,29.77,North,359,11.0,11.0,83,0.00,,---,0.00,0.00,VWS V14.01,2013-02-17 11:34:00,
2013-02-17 05:35:00,28.7,24.2,29.77,NW,319,9.0,12.0,83,0.00,,---,0.00,0.00,VWS V14.01,2013-02-17 11:35:00,
2013-02-17 05:40:00,28.5,24.0,29.77,NW,323,8.0,10.0,83,0.00,,---,0.00,0.00,VWS V14.01,2013-02-17 11:40:00,
2013-02-17 05:45:00,28.4,23.9,29.77,NW,318,7.0,9.0,83,0.00,,---,0.00,0.00,VWS V14.01,2013-02-17 11:45:00,
2013-02-17 05:50:00,28.1,23.6,29.77,North,0,6.0,7.0,83,0.00,,---,0.00,0.00,VWS V14.01,2013-02-17 11:50:00,
2013-02-17 05:55:00,27.9,23.4,29.77,North,0,6.0,8.0,83,0.00,,---,0.00,0.00,VWS V14.01,2013-02-17 11:55:00,
2013-02-17 06:00:00,27.6,23.1,29.77,WSW,251,7.0,7.0,83,0.00,,---,0.00,0.00,VWS V14.01,2013-02-17 12:00:00,
2013-02-17 06:05:00,27.5,23.3,29.77,WNW,292,8.0,8.0,84,0.00,,---,0.00,0.00,VWS V14.01,2013-02-17 12:05:00,
2013-02-17 06:10:00,27.3,22.8,29.77,NNW,340,7.0,8.0,83,0.00,,---,0.00,0.00,VWS V14.01,2013-02-17 12:10:00,
2013-02-17 06:15:00,27.5,23.3,29.78,NW,312,8.0,9.0,84,0.00,,---,0.00,0.00,VWS V14.01,2013-02-17 12:15:00,
2013-02-17 06:20:00,27.3,23.1,29.78,SSW,202,8.0,8.0,84,0.00,,---,0.00,0.00,VWS V14.01,2013-02-17 12:20:00,
2013-02-17 06:25:00,27.2,23.0,29.78,North,0,10.0,11.0,84,0.00,,---,0.00,0.00,VWS V14.01,2013-02-17 12:25:00,
2013-02-17 06:26:00,27.2,23.0,29.78,SSW,210,7.0,11.0,84,0.00,,---,0.00,0.00,VWS V14.01,2013-02-17 12:26:00,
2013-02-17 06:30:00,27.6,24.0,29.76,SW,229,10.0,12.0,86,0.00,,---,0.00,5.00,VWS V14.01,2013-02-17 12:30:00,
2013-02-17 06:31:00,27.2,23.0,29.77,SW,224,7.0,11.0,84,0.00,,---,0.00,0.00,VWS V14.01,2013-02-17 12:31:00,
2013-02-17 06:35:00,27.2,23.0,29.77,SW,233,8.0,11.0,84,0.00,,---,0.00,0.00,VWS V14.01,2013-02-17 12:35:00,
2013-02-17 06:36:00,27.0,22.8,29.77,West,260,8.0,8.0,84,0.00,,---,0.00,0.00,VWS V14.01,2013-02-17 12:36:00,
2013-02-17 06:40:00,27.0,23.1,29.77,SSW,193,7.0,10.0,85,0.00,,---,0.00,0.00,VWS V14.01,2013-02-17 12:40:00,
2013-02-17 06:41:00,27.0,23.1,29.77,WSW,239,7.0,8.0,85,0.00,,---,0.00,0.00,VWS V14.01,2013-02-17 12:41:00,
2013-02-17 06:45:00,27.0,23.1,29.77,WSW,250,7.0,8.0,85,0.00,,---,0.00,0.00,VWS V14.01,2013-02-17 12:45:00,
2013-02-17 06:46:00,26.9,23.0,29.77,West,264,7.0,8.0,85,0.00,,---,0.00,0.00,VWS V14.01,2013-02-17 12:46:00,
2013-02-17 06:50:00,26.9,23.0,29.77,SW,226,8.0,10.0,85,0.00,,---,0.00,0.00,VWS V14.01,2013-02-17 12:50:00,
2013-02-17 06:51:00,26.9,23.0,29.77,SW,216,7.0,9.0,85,0.00,,---,0.00,0.00,VWS V14.01,2013-02-17 12:51:00,
2013-02-17 06:55:00,26.9,23.0,29.77,South,182,6.0,10.0,85,0.00,,---,0.00,0.00,VWS V14.01,2013-02-17 12:55:00,
2013-02-17 06:56:00,26.6,22.7,29.77,WSW,241,8.0,9.0,85,0.00,,---,0.00,0.00,VWS V14.01,2013-02-17 12:56:00,
2013-02-17 07:00:00,26.6,22.7,29.76,SSW,203,8.0,9.0,85,0.00,,---,0.00,0.00,VWS V14.01,2013-02-17 13:00:00,
2013-02-17 07:01:00,26.6,22.7,29.76,NNW,332,7.0,10.0,85,0.00,,---,0.00,0.00,VWS V14.01,2013-02-17 13:01:00,
2013-02-17 07:05:00,26.6,22.7,29.76,West,277,8.0,10.0,85,0.00,,---,0.00,0.00,VWS V14.01,2013-02-17 13:05:00,
2013-02-17 07:06:00,26.6,23.0,29.76,North,357,8.0,9.0,86,0.00,,---,0.00,0.00,VWS V14.01,2013-02-17 13:06:00,
2013-02-17 07:10:00,26.7,22.8,29.76,NW,311,7.0,11.0,85,0.00,,---,0.00,0.00,VWS V14.01,2013-02-17 13:10:00,
2013-02-17 07:11:00,26.7,22.8,29.76,WNW,296,8.0,10.0,85,0.00,,---,0.00,0.00,VWS V14.01,2013-02-17 13:11:00,
2013-02-17 07:15:00,26.7,23.1,29.76,NW,306,11.0,11.0,86,0.00,,---,0.00,0.00,VWS V14.01,2013-02-17 13:15:00,
2013-02-17 07:16:00,26.9,23.3,29.76,South,185,9.0,11.0,86,0.00,,---,0.00,0.00,VWS V14.01,2013-02-17 13:16:00,
2013-02-17 07:20:00,26.9,23.3,29.76,NNW,347,8.0,11.0,86,0.00,,---,0.00,0.00,VWS V14.01,2013-02-17 13:20:00,
2013-02-17 07:22:00,27.0,23.4,29.76,West,281,11.0,11.0,86,0.00,,---,0.00,0.00,VWS V14.01,2013-02-17 13:22:00,
2013-02-17 07:25:00,27.2,23.6,29.76,NW,312,10.0,11.0,86,0.00,,---,0.00,0.00,VWS V14.01,2013-02-17 13:25:00,
2013-02-17 07:27:00,27.3,23.7,29.76,SW,226,11.0,11.0,86,0.00,,---,0.00,5.00,VWS V14.01,2013-02-17 13:27:00,
2013-02-17 07:30:00,27.6,24.0,29.76,SW,229,10.0,12.0,86,0.00,,---,0.00,5.00,VWS V14.01,2013-02-17 13:30:00,
2013-02-17 07:32:00,28.1,24.5,29.76,SSW,200,11.0,11.0,86,0.00,,---,0.00,9.00,VWS V14.01,2013-02-17 13:32:00,
2013-02-17 07:35:00,28.2,24.6,29.76,SSW,206,8.0,11.0,86,0.00,,---,0.00,14.00,VWS V14.01,2013-02-17 13:35:00,
2013-02-17 07:37:00,28.4,24.8,29.76,SSW,198,8.0,12.0,86,0.00,,---,0.00,14.00,VWS V14.01,2013-02-17 13:37:00,
2013-02-17 07:40:00,28.5,24.9,29.76,SSW,192,7.0,12.0,86,0.00,,---,0.00,21.00,VWS V14.01,2013-02-17 13:40:00,
2013-02-17 07:42:00,28.7,25.0,29.76,South,191,8.0,11.0,86,0.00,,---,0.00,39.00,VWS V14.01,2013-02-17 13:42:00,
2013-02-17 07:45:00,28.8,25.1,29.75,WSW,239,10.0,11.0,86,0.00,,---,0.00,39.00,VWS V14.01,2013-02-17 13:45:00,
2013-02-17 07:47:00,29.1,25.4,29.75,North,353,11.0,12.0,86,0.00,,---,0.00,48.00,VWS V14.01,2013-02-17 13:47:00,
2013-02-17 07:50:00,29.4,25.7,29.75,North,0,11.0,13.0,86,0.00,,---,0.00,48.00,VWS V14.01,2013-02-17 13:50:00,
2013-02-17 07:52:00,30.0,26.3,29.75,West,263,8.0,13.0,86,0.00,,---,0.00,69.00,VWS V14.01,2013-02-17 13:52:00,
2013-02-17 07:55:00,30.1,26.1,29.75,WSW,243,10.0,13.0,85,0.00,,---,0.00,74.00,VWS V14.01,2013-02-17 13:55:00,
2013-02-17 07:57:00,30.4,26.1,29.75,SSW,210,7.0,11.0,84,0.00,,---,0.00,69.00,VWS V14.01,2013-02-17 13:57:00,
2013-02-17 08:00:00,30.6,26.4,29.75,SSW,199,7.0,11.0,84,0.00,,---,0.00,70.00,VWS V14.01,2013-02-17 14:00:00,
2013-02-17 08:02:00,30.6,26.4,29.75,West,261,9.0,11.0,84,0.00,,---,0.00,95.00,VWS V14.01,2013-02-17 14:02:00,
2013-02-17 08:05:00,30.6,26.4,29.75,North,0,9.0,11.0,84,0.00,,---,0.00,102.00,VWS V14.01,2013-02-17 14:05:00,
2013-02-17 08:07:00,30.9,26.4,29.75,WSW,248,8.0,11.0,83,0.00,,---,0.00,104.00,VWS V14.01,2013-02-17 14:07:00,
2013-02-17 08:10:00,31.0,26.5,29.75,SW,227,7.0,11.0,83,0.00,,---,0.00,106.00,VWS V14.01,2013-02-17 14:10:00,
2013-02-17 08:13:00,31.3,26.8,29.75,WSW,239,10.0,11.0,83,0.00,,---,0.00,118.00,VWS V14.01,2013-02-17 14:13:00,
2013-02-17 08:15:00,31.5,26.6,29.75,SW,222,10.0,11.0,82,0.00,,---,0.00,121.00,VWS V14.01,2013-02-17 14:15:00,
2013-02-17 08:18:00,31.8,26.9,29.75,SSW,202,8.0,11.0,82,0.00,,---,0.00,132.00,VWS V14.01,2013-02-17 14:18:00,
2013-02-17 08:20:00,31.9,27.0,29.75,SSW,193,6.0,11.0,82,0.00,,---,0.00,135.00,VWS V14.01,2013-02-17 14:20:00,
2013-02-17 08:23:00,32.4,27.5,29.75,SSW,203,7.0,8.0,82,0.00,,---,0.00,148.00,VWS V14.01,2013-02-17 14:23:00,
2013-02-17 08:25:00,32.4,27.5,29.75,SSW,202,10.0,10.0,82,0.00,,---,0.00,150.00,VWS V14.01,2013-02-17 14:25:00,
2013-02-17 08:28:00,32.7,27.8,29.75,NW,315,5.0,10.0,82,0.00,,---,0.00,164.00,VWS V14.01,2013-02-17 14:28:00,
2013-02-17 08:30:00,32.7,27.5,29.74,SW,217,5.0,10.0,81,0.00,,---,0.00,165.00,VWS V14.01,2013-02-17 14:30:00,
2013-02-17 08:33:00,33.1,28.2,29.74,South,186,6.0,8.0,82,0.00,,---,0.00,178.00,VWS V14.01,2013-02-17 14:33:00,
2013-02-17 08:35:00,33.2,28.3,29.74,South,191,2.0,8.0,82,0.00,,---,0.00,179.00,VWS V14.01,2013-02-17 14:35:00,
2013-02-17 08:38:00,33.5,28.3,29.74,South,181,6.0,7.0,81,0.00,,---,0.00,195.00,VWS V14.01,2013-02-17 14:38:00,
2013-02-17 08:40:00,33.7,28.8,29.74,SSW,192,6.0,7.0,82,0.00,,---,0.00,199.00,VWS V14.01,2013-02-17 14:40:00,
2013-02-17 08:43:00,34.3,29.1,29.74,South,189,6.0,10.0,81,0.00,,---,0.00,225.00,VWS V14.01,2013-02-17 14:43:00,
2013-02-17 08:45:00,34.3,29.1,29.74,SW,232,6.0,10.0,81,0.00,,---,0.00,225.00,VWS V14.01,2013-02-17 14:45:00,
2013-02-17 08:48:00,35.0,29.8,29.74,SW,222,6.0,9.0,81,0.00,,---,0.00,213.00,VWS V14.01,2013-02-17 14:48:00,
2013-02-17 08:50:00,35.0,29.5,29.74,SSW,205,6.0,9.0,80,0.00,,---,0.00,213.00,VWS V14.01,2013-02-17 14:50:00,
2013-02-17 08:54:00,35.8,30.2,29.74,WSW,248,7.0,8.0,80,0.00,,---,0.00,260.00,VWS V14.01,2013-02-17 14:54:00,
2013-02-17 08:55:00,43.1,32.2,29.73,WNW,282,9.0,11.0,65,0.00,,---,0.00,387.00,VWS V14.01,2013-02-17 14:55:00,
2013-02-17 08:59:00,36.5,30.6,29.74,SW,216,8.0,9.0,79,0.00,,---,0.00,227.00,VWS V14.01,2013-02-17 14:59:00,
2013-02-17 09:00:00,36.5,30.6,29.74,WSW,250,7.0,9.0,79,0.00,,---,0.00,227.00,VWS V14.01,2013-02-17 15:00:00,
2013-02-17 09:04:00,37.0,30.8,29.74,South,191,6.0,8.0,78,0.00,,---,0.00,289.00,VWS V14.01,2013-02-17 15:04:00,
2013-02-17 09:05:00,37.0,30.8,29.74,South,191,6.0,8.0,78,0.00,,---,0.00,289.00,VWS V14.01,2013-02-17 15:05:00,
2013-02-17 09:09:00,37.6,31.1,29.74,SSW,198,6.0,9.0,77,0.00,,---,0.00,280.00,VWS V14.01,2013-02-17 15:09:00,
2013-02-17 09:10:00,45.5,32.4,29.72,SSE,161,5.0,10.0,60,0.00,,---,0.00,449.00,VWS V14.01,2013-02-17 15:10:00,
2013-02-17 09:14:00,38.2,31.3,29.74,WSW,247,6.0,9.0,76,0.00,,---,0.00,283.00,VWS V14.01,2013-02-17 15:14:00,
2013-02-17 09:15:00,38.2,31.3,29.74,WSW,247,6.0,9.0,76,0.00,,---,0.00,283.00,VWS V14.01,2013-02-17 15:15:00,
2013-02-17 09:19:00,38.8,31.6,29.74,South,189,6.0,8.0,75,0.00,,---,0.00,280.00,VWS V14.01,2013-02-17 15:19:00,
2013-02-17 09:20:00,47.3,32.4,29.71,WNW,299,12.0,12.0,56,0.00,,---,0.00,422.00,VWS V14.01,2013-02-17 15:20:00,
2013-02-17 09:24:00,39.6,32.0,29.74,NW,325,8.0,8.0,74,0.00,,---,0.00,303.00,VWS V14.01,2013-02-17 15:24:00,
2013-02-17 09:25:00,39.5,31.9,29.74,WSW,253,8.0,10.0,74,0.00,,---,0.00,303.00,VWS V14.01,2013-02-17 15:25:00,
2013-02-17 09:29:00,40.1,31.8,29.73,SSW,199,7.0,10.0,72,0.00,,---,0.00,336.00,VWS V14.01,2013-02-17 15:29:00,
2013-02-17 09:34:00,40.6,32.3,29.73,WSW,248,11.0,12.0,72,0.00,,---,0.00,357.00,VWS V14.01,2013-02-17 15:34:00,
2013-02-17 09:39:00,41.2,32.2,29.73,WSW,257,8.0,11.0,70,0.00,,---,0.00,380.00,VWS V14.01,2013-02-17 15:39:00,
2013-02-17 09:40:00,49.6,31.7,29.70,South,182,3.0,8.0,50,0.00,,---,0.00,509.00,VWS V14.01,2013-02-17 15:40:00,
2013-02-17 09:44:00,41.9,32.5,29.73,SSW,213,11.0,11.0,69,0.00,,---,0.00,382.00,VWS V14.01,2013-02-17 15:44:00,
2013-02-17 09:45:00,41.9,32.5,29.73,SW,226,8.0,11.0,69,0.00,,---,0.00,382.00,VWS V14.01,2013-02-17 15:45:00,
2013-02-17 09:49:00,42.5,32.0,29.73,WNW,282,9.0,11.0,66,0.00,,---,0.00,401.00,VWS V14.01,2013-02-17 15:49:00,
2013-02-17 09:50:00,42.5,32.0,29.73,North,353,11.0,12.0,66,0.00,,---,0.00,401.00,VWS V14.01,2013-02-17 15:50:00,
2013-02-17 09:54:00,43.2,32.2,29.73,WNW,301,8.0,9.0,65,0.00,,---,0.00,415.00,VWS V14.01,2013-02-17 15:54:00,
2013-02-17 09:55:00,51.6,31.5,29.70,WSW,250,6.0,12.0,46,0.00,,---,0.00,533.00,VWS V14.01,2013-02-17 15:55:00,
2013-02-17 10:00:00,44.1,32.3,29.72,South,189,10.0,10.0,63,0.00,,---,0.00,433.00,VWS V14.01,2013-02-17 16:00:00,
2013-02-17 10:05:00,44.9,32.3,29.72,North,0,8.0,10.0,61,0.00,,---,0.00,449.00,VWS V14.01,2013-02-17 16:05:00,
2013-02-17 10:10:00,45.7,32.6,29.72,SSE,152,5.0,6.0,60,0.00,,---,0.00,449.00,VWS V14.01,2013-02-17 16:10:00,
2013-02-17 10:15:00,46.5,32.5,29.71,South,181,6.0,10.0,58,0.00,,---,0.00,457.00,VWS V14.01,2013-02-17 16:15:00,
2013-02-17 10:20:00,47.4,32.1,29.71,SW,229,11.0,12.0,55,0.00,,---,0.00,422.00,VWS V14.01,2013-02-17 16:20:00,
2013-02-17 10:25:00,48.0,32.2,29.71,WSW,246,7.0,7.0,54,0.00,,---,0.00,201.00,VWS V14.01,2013-02-17 16:25:00,
2013-02-17 10:30:00,48.6,31.8,29.70,SW,230,7.0,10.0,52,0.00,,---,0.00,343.00,VWS V14.01,2013-02-17 16:30:00,
2013-02-17 10:35:00,49.2,31.9,29.70,South,175,7.0,8.0,51,0.00,,---,0.00,477.00,VWS V14.01,2013-02-17 16:35:00,
2013-02-17 10:40:00,49.9,32.0,29.70,WSW,246,7.0,8.0,50,0.00,,---,0.00,521.00,VWS V14.01,2013-02-17 16:40:00,
2013-02-17 10:45:00,50.5,32.1,29.70,WNW,287,3.0,8.0,49,0.00,,---,0.00,519.00,VWS V14.01,2013-02-17 16:45:00,
2013-02-17 10:46:00,50.7,31.7,29.70,South,178,3.0,6.0,48,0.00,,---,0.00,528.00,VWS V14.01,2013-02-17 16:46:00,
2013-02-17 10:50:00,51.1,32.1,29.70,South,178,5.0,10.0,48,0.00,,---,0.00,530.00,VWS V14.01,2013-02-17 16:50:00,
2013-02-17 10:51:00,51.3,31.8,29.70,NW,309,8.0,8.0,47,0.00,,---,0.00,524.00,VWS V14.01,2013-02-17 16:51:00,
2013-02-17 10:55:00,51.6,31.5,29.70,WSW,250,6.0,12.0,46,0.00,,---,0.00,533.00,VWS V14.01,2013-02-17 16:55:00,
2013-02-17 10:56:00,51.9,31.2,29.70,South,185,1.0,7.0,45,0.00,,---,0.00,538.00,VWS V14.01,2013-02-17 16:56:00,
2013-02-17 11:00:00,52.2,32.1,29.69,South,179,2.0,9.0,46,0.00,,---,0.00,545.00,VWS V14.01,2013-02-17 17:00:00,
2013-02-17 11:01:00,52.5,32.3,29.69,SW,216,5.0,10.0,46,0.00,,---,0.00,547.00,VWS V14.01,2013-02-17 17:01:00,
2013-02-17 11:05:00,52.9,32.7,29.69,SSE,167,9.0,10.0,46,0.00,,---,0.00,577.00,VWS V14.01,2013-02-17 17:05:00,
2013-02-17 11:06:00,53.2,33.0,29.69,SW,223,5.0,9.0,46,0.00,,---,0.00,561.00,VWS V14.01,2013-02-17 17:06:00,
2013-02-17 11:10:00,53.6,32.8,29.69,NW,304,2.0,9.0,45,0.00,,---,0.00,584.00,VWS V14.01,2013-02-17 17:10:00,
2013-02-17 11:11:00,53.9,33.1,29.69,SW,227,1.0,8.0,45,0.00,,---,0.00,581.00,VWS V14.01,2013-02-17 17:11:00,
2013-02-17 11:15:00,54.4,31.8,29.68,West,267,5.0,11.0,42,0.00,,---,0.00,589.00,VWS V14.01,2013-02-17 17:15:00,
2013-02-17 11:16:00,54.7,32.7,29.68,South,181,1.0,7.0,43,0.00,,---,0.00,561.00,VWS V14.01,2013-02-17 17:16:00,
2013-02-17 11:20:00,55.1,31.8,29.68,SSW,192,8.0,11.0,41,0.00,,---,0.00,584.00,VWS V14.01,2013-02-17 17:20:00,
2013-02-17 11:21:00,55.3,31.4,29.68,WSW,251,4.0,11.0,40,0.00,,---,0.00,563.00,VWS V14.01,2013-02-17 17:21:00,
2013-02-17 11:25:00,55.4,32.1,29.68,NNW,332,4.0,11.0,41,0.00,,---,0.00,565.00,VWS V14.01,2013-02-17 17:25:00,
2013-02-17 11:26:00,55.6,32.3,29.68,West,271,9.0,12.0,41,0.00,,---,0.00,579.00,VWS V14.01,2013-02-17 17:26:00,
2013-02-17 11:30:00,55.7,31.8,29.67,WSW,244,7.0,12.0,40,0.00,,---,0.00,567.00,VWS V14.01,2013-02-17 17:30:00,
2013-02-17 11:31:00,55.9,32.0,29.67,WSW,256,4.0,7.0,40,0.00,,---,0.00,480.00,VWS V14.01,2013-02-17 17:31:00,
2013-02-17 11:35:00,56.0,32.0,29.67,WNW,295,5.0,10.0,40,0.00,,---,0.00,440.00,VWS V14.01,2013-02-17 17:35:00,
2013-02-17 11:37:00,56.0,32.0,29.67,WSW,251,5.0,10.0,40,0.00,,---,0.00,554.00,VWS V14.01,2013-02-17 17:37:00,
2013-02-17 11:40:00,56.3,31.7,29.67,North,0,8.0,10.0,39,0.00,,---,0.00,586.00,VWS V14.01,2013-02-17 17:40:00,
2013-02-17 11:42:00,56.6,32.0,29.67,North,0,11.0,12.0,39,0.00,,---,0.00,524.00,VWS V14.01,2013-02-17 17:42:00,
2013-02-17 11:45:00,56.9,31.6,29.66,SE,128,11.0,13.0,38,0.00,,---,0.00,574.00,VWS V14.01,2013-02-17 17:45:00,
2013-02-17 11:47:00,57.0,31.7,29.66,West,274,7.0,11.0,38,0.00,,---,0.00,545.00,VWS V14.01,2013-02-17 17:47:00,
2013-02-17 11:50:00,57.2,31.8,29.66,SSW,203,7.0,12.0,38,0.00,,---,0.00,584.00,VWS V14.01,2013-02-17 17:50:00,
2013-02-17 11:52:00,57.6,30.9,29.66,WSW,254,9.0,10.0,36,0.00,,---,0.00,567.00,VWS V14.01,2013-02-17 17:52:00,
2013-02-17 11:55:00,58.0,31.2,29.66,North,0,8.0,13.0,36,0.00,,---,0.00,567.00,VWS V14.01,2013-02-17 17:55:00,
2013-02-17 11:57:00,58.3,31.5,29.66,NNW,328,3.0,11.0,36,0.00,,---,0.00,91.00,VWS V14.01,2013-02-17 17:57:00,
2013-02-17 12:00:00,58.6,31.8,29.65,NNW,339,7.0,12.0,36,0.00,,---,0.00,90.00,VWS V14.01,2013-02-17 18:00:00,
2013-02-17 12:02:00,59.0,31.4,29.65,SW,217,6.0,10.0,35,0.00,,---,0.00,88.00,VWS V14.01,2013-02-17 18:02:00,
2013-02-17 12:05:00,59.3,31.7,29.65,WSW,250,7.0,11.0,35,0.00,,---,0.00,90.00,VWS V14.01,2013-02-17 18:05:00,
2013-02-17 12:07:00,59.6,30.5,29.65,North,349,9.0,11.0,33,0.00,,---,0.00,88.00,VWS V14.01,2013-02-17 18:07:00,
2013-02-17 12:10:00,59.8,29.9,29.65,SSE,165,5.0,12.0,32,0.00,,---,0.00,134.00,VWS V14.01,2013-02-17 18:10:00,
2013-02-17 12:12:00,60.2,29.5,29.65,SSW,198,8.0,14.0,31,0.00,,---,0.00,637.00,VWS V14.01,2013-02-17 18:12:00,
2013-02-17 12:15:00,60.4,29.6,29.63,NNW,328,10.0,14.0,31,0.00,,---,0.00,649.00,VWS V14.01,2013-02-17 18:15:00,
2013-02-17 12:17:00,60.9,29.3,29.63,SW,219,12.0,13.0,30,0.00,,---,0.00,663.00,VWS V14.01,2013-02-17 18:17:00,
2013-02-17 12:20:00,61.2,29.5,29.63,SSE,158,6.0,13.0,30,0.00,,---,0.00,670.00,VWS V14.01,2013-02-17 18:20:00,
2013-02-17 12:22:00,61.6,29.1,29.63,West,280,6.0,13.0,29,0.00,,---,0.00,658.00,VWS V14.01,2013-02-17 18:22:00,
2013-02-17 12:25:00,61.6,29.1,29.63,South,176,6.0,13.0,29,0.00,,---,0.00,658.00,VWS V14.01,2013-02-17 18:25:00,
2013-02-17 12:28:00,62.0,28.5,29.63,South,174,11.0,12.0,28,0.00,,---,0.00,188.00,VWS V14.01,2013-02-17 18:28:00,
2013-02-17 12:30:00,62.1,28.6,29.61,SSE,168,5.0,12.0,28,0.00,,---,0.00,188.00,VWS V14.01,2013-02-17 18:30:00,
2013-02-17 12:33:00,62.6,29.1,29.61,South,188,10.0,13.0,28,0.00,,---,0.00,540.00,VWS V14.01,2013-02-17 18:33:00,
2013-02-17 12:35:00,62.7,29.1,29.61,SW,223,6.0,13.0,28,0.00,,---,0.00,540.00,VWS V14.01,2013-02-17 18:35:00,
2013-02-17 12:38:00,63.1,29.5,29.61,SSW,200,12.0,15.0,28,0.00,,---,0.00,144.00,VWS V14.01,2013-02-17 18:38:00,
2013-02-17 12:40:00,63.2,29.6,29.61,SSW,202,10.0,15.0,28,0.00,,---,0.00,148.00,VWS V14.01,2013-02-17 18:40:00,
2013-02-17 12:43:00,63.4,29.8,29.61,North,353,6.0,14.0,28,0.00,,---,0.00,169.00,VWS V14.01,2013-02-17 18:43:00,
2013-02-17 12:45:00,63.7,29.1,29.60,North,359,8.0,14.0,27,0.00,,---,0.00,167.00,VWS V14.01,2013-02-17 18:45:00,
2013-02-17 12:48:00,64.0,28.5,29.60,West,270,3.0,13.0,26,0.00,,---,0.00,157.00,VWS V14.01,2013-02-17 18:48:00,
2013-02-17 12:50:00,64.0,28.5,29.60,North,353,17.0,17.0,26,0.00,,---,0.00,157.00,VWS V14.01,2013-02-17 18:50:00,
2013-02-17 12:53:00,64.3,28.7,29.60,NW,311,11.0,18.0,26,0.00,,---,0.00,215.00,VWS V14.01,2013-02-17 18:53:00,
2013-02-17 12:55:00,64.5,28.9,29.60,WSW,254,12.0,18.0,26,0.00,,---,0.00,260.00,VWS V14.01,2013-02-17 18:55:00,
2013-02-17 12:58:00,64.7,29.0,29.59,South,169,11.0,13.0,26,0.00,,---,0.00,234.00,VWS V14.01,2013-02-17 18:58:00,
2013-02-17 13:00:00,64.7,29.0,29.59,NW,320,9.0,16.0,26,0.00,,---,0.00,282.00,VWS V14.01,2013-02-17 19:00:00,
2013-02-17 13:03:00,65.0,29.3,29.59,West,278,8.0,14.0,26,0.00,,---,0.00,579.00,VWS V14.01,2013-02-17 19:03:00,
2013-02-17 13:05:00,65.0,29.3,29.59,South,169,17.0,17.0,26,0.00,,---,0.00,567.00,VWS V14.01,2013-02-17 19:05:00,
2013-02-17 13:08:00,64.8,29.1,29.59,North,0,14.0,20.0,26,0.00,,---,0.00,449.00,VWS V14.01,2013-02-17 19:08:00,
2013-02-17 13:10:00,64.7,29.0,29.59,NW,325,12.0,20.0,26,0.00,,---,0.00,449.00,VWS V14.01,2013-02-17 19:10:00,
2013-02-17 13:13:00,64.7,29.0,29.58,WNW,298,11.0,18.0,26,0.00,,---,0.00,723.00,VWS V14.01,2013-02-17 19:13:00,
2013-02-17 13:15:00,64.7,29.0,29.58,SSW,199,10.0,18.0,26,0.00,,---,0.00,723.00,VWS V14.01,2013-02-17 19:15:00,
2013-02-17 13:18:00,65.3,27.6,29.58,NNW,347,12.0,25.0,24,0.00,,---,0.00,721.00,VWS V14.01,2013-02-17 19:18:00,
2013-02-17 13:20:00,65.5,28.8,29.58,SW,215,13.0,25.0,25,0.00,,---,0.00,721.00,VWS V14.01,2013-02-17 19:20:00,
2013-02-17 13:24:00,66.0,28.2,29.58,SW,219,13.0,19.0,24,0.00,,---,0.00,619.00,VWS V14.01,2013-02-17 19:24:00,
2013-02-17 13:25:00,65.8,28.0,29.58,SSE,160,8.0,19.0,24,0.00,,---,0.00,619.00,VWS V14.01,2013-02-17 19:25:00,
2013-02-17 13:29:00,65.8,28.0,29.57,WSW,257,17.0,19.0,24,0.00,,---,0.00,266.00,VWS V14.01,2013-02-17 19:29:00,
2013-02-17 13:30:00,65.8,28.0,29.57,NNW,342,12.0,19.0,24,0.00,,---,0.00,266.00,VWS V14.01,2013-02-17 19:30:00,
2013-02-17 13:34:00,66.0,28.2,29.57,South,189,8.0,18.0,24,0.00,,---,0.00,185.00,VWS V14.01,2013-02-17 19:34:00,
2013-02-17 13:35:00,66.0,29.2,29.57,SW,216,11.0,18.0,25,0.00,,---,0.00,185.00,VWS V14.01,2013-02-17 19:35:00,
2013-02-17 13:39:00,66.3,28.5,29.57,SW,220,13.0,19.0,24,0.00,,---,0.00,195.00,VWS V14.01,2013-02-17 19:39:00,
2013-02-17 13:40:00,66.3,28.5,29.57,SW,220,13.0,19.0,24,0.00,,---,0.00,195.00,VWS V14.01,2013-02-17 19:40:00,
2013-02-17 13:44:00,66.0,29.2,29.56,SW,229,9.0,19.0,25,0.00,,---,0.00,257.00,VWS V14.01,2013-02-17 19:44:00,
2013-02-17 13:45:00,66.0,29.2,29.56,SW,229,9.0,19.0,25,0.00,,---,0.00,257.00,VWS V14.01,2013-02-17 19:45:00,
2013-02-17 13:49:00,66.4,28.5,29.56,SW,229,16.0,18.0,24,0.00,,---,0.00,609.00,VWS V14.01,2013-02-17 19:49:00,
2013-02-17 13:50:00,66.4,28.5,29.56,SW,229,16.0,18.0,24,0.00,,---,0.00,609.00,VWS V14.01,2013-02-17 19:50:00,
2013-02-17 13:54:00,66.6,28.7,29.56,South,174,11.0,20.0,24,0.00,,---,0.00,582.00,VWS V14.01,2013-02-17 19:54:00,
2013-02-17 13:55:00,66.6,28.7,29.56,South,174,11.0,20.0,24,0.00,,---,0.00,582.00,VWS V14.01,2013-02-17 19:55:00,
2013-02-17 13:59:00,66.6,27.7,29.54,North,356,14.0,20.0,23,0.00,,---,0.00,582.00,VWS V14.01,2013-02-17 19:59:00,
2013-02-17 14:00:00,66.6,27.7,29.54,North,356,14.0,20.0,23,0.00,,---,0.00,582.00,VWS V14.01,2013-02-17 20:00:00,
2013-02-17 14:04:00,66.6,27.7,29.54,SSW,200,13.0,13.0,23,0.00,,---,0.00,544.00,VWS V14.01,2013-02-17 20:04:00,
2013-02-17 14:05:00,66.6,27.7,29.54,North,349,11.0,19.0,23,0.00,,---,0.00,544.00,VWS V14.01,2013-02-17 20:05:00,
2013-02-17 14:09:00,66.8,27.8,29.54,NNW,343,10.0,11.0,23,0.00,,---,0.00,552.00,VWS V14.01,2013-02-17 20:09:00,
2013-02-17 14:10:00,66.8,27.8,29.54,North,0,10.0,21.0,23,0.00,,---,0.00,538.00,VWS V14.01,2013-02-17 20:10:00,
2013-02-17 14:14:00,66.9,27.9,29.53,WNW,298,17.0,18.0,23,0.00,,---,0.00,480.00,VWS V14.01,2013-02-17 20:14:00,
2013-02-17 14:15:00,66.9,27.9,29.53,WSW,244,15.0,21.0,23,0.00,,---,0.00,482.00,VWS V14.01,2013-02-17 20:15:00,
2013-02-17 14:19:00,66.9,27.9,29.53,NW,308,19.0,21.0,23,0.00,,---,0.00,496.00,VWS V14.01,2013-02-17 20:19:00,
2013-02-17 14:20:00,66.9,27.9,29.53,WSW,250,21.0,22.0,23,0.00,,---,0.00,505.00,VWS V14.01,2013-02-17 20:20:00,
2013-02-17 14:24:00,66.9,27.9,29.53,South,171,10.0,14.0,23,0.00,,---,0.00,487.00,VWS V14.01,2013-02-17 20:24:00,
2013-02-17 14:25:00,66.9,27.9,29.53,NNW,339,10.0,21.0,23,0.00,,---,0.00,519.00,VWS V14.01,2013-02-17 20:25:00,
2013-02-17 14:29:00,67.1,28.1,29.52,WNW,296,16.0,16.0,23,0.00,,---,0.00,630.00,VWS V14.01,2013-02-17 20:29:00,
2013-02-17 14:30:00,67.1,28.1,29.52,NW,316,10.0,21.0,23,0.00,,---,0.00,633.00,VWS V14.01,2013-02-17 20:30:00,
2013-02-17 14:35:00,67.3,28.3,29.52,WSW,248,17.0,25.0,23,0.00,,---,0.00,669.00,VWS V14.01,2013-02-17 20:35:00,
2013-02-17 14:40:00,67.1,28.1,29.52,WSW,250,18.0,21.0,23,0.00,,---,0.00,442.00,VWS V14.01,2013-02-17 20:40:00,
2013-02-17 14:45:00,66.8,28.9,29.51,SSW,195,12.0,16.0,24,0.00,,---,0.00,405.00,VWS V14.01,2013-02-17 20:45:00,
2013-02-17 14:50:00,66.6,27.7,29.51,WNW,287,17.0,20.0,23,0.00,,---,0.00,387.00,VWS V14.01,2013-02-17 20:50:00,
2013-02-17 14:55:00,66.3,27.4,29.51,South,189,16.0,25.0,23,0.00,,---,0.00,373.00,VWS V14.01,2013-02-17 20:55:00,
2013-02-17 15:00:00,66.1,27.2,29.50,WSW,237,12.0,22.0,23,0.00,,---,0.00,394.00,VWS V14.01,2013-02-17 21:00:00,
2013-02-17 15:05:00,66.6,27.7,29.50,NNW,332,13.0,14.0,23,0.00,,---,0.00,408.00,VWS V14.01,2013-02-17 21:05:00,
2013-02-17 15:10:00,66.4,27.5,29.50,SSE,152,10.0,11.0,23,0.00,,---,0.00,320.00,VWS V14.01,2013-02-17 21:10:00,
2013-02-17 15:15:00,66.4,27.5,29.49,NW,325,14.0,19.0,23,0.00,,---,0.00,318.00,VWS V14.01,2013-02-17 21:15:00,
2013-02-17 15:16:00,66.3,28.5,29.49,NNW,339,12.0,16.0,24,0.00,,---,0.00,304.00,VWS V14.01,2013-02-17 21:16:00,
2013-02-17 15:20:00,66.3,27.4,29.49,WNW,299,13.0,19.0,23,0.00,,---,0.00,317.00,VWS V14.01,2013-02-17 21:20:00,
2013-02-17 15:21:00,66.3,27.4,29.49,SSW,206,12.0,17.0,23,0.00,,---,0.00,333.00,VWS V14.01,2013-02-17 21:21:00,
2013-02-17 15:25:00,66.3,27.4,29.49,WNW,298,12.0,17.0,23,0.00,,---,0.00,396.00,VWS V14.01,2013-02-17 21:25:00,
2013-02-17 15:26:00,66.3,27.4,29.49,SSW,203,17.0,24.0,23,0.00,,---,0.00,362.00,VWS V14.01,2013-02-17 21:26:00,
2013-02-17 15:30:00,66.4,27.5,29.48,NNW,329,13.0,25.0,23,0.00,,---,0.00,355.00,VWS V14.01,2013-02-17 21:30:00,
2013-02-17 15:31:00,66.6,27.7,29.48,North,356,10.0,18.0,23,0.00,,---,0.00,292.00,VWS V14.01,2013-02-17 21:31:00,
2013-02-17 15:35:00,66.8,27.8,29.48,WNW,288,17.0,19.0,23,0.00,,---,0.00,290.00,VWS V14.01,2013-02-17 21:35:00,
2013-02-17 15:36:00,66.6,26.6,29.48,NW,319,24.0,25.0,22,0.00,,---,0.00,269.00,VWS V14.01,2013-02-17 21:36:00,
2013-02-17 15:40:00,66.6,26.6,29.48,WSW,244,27.0,27.0,22,0.00,,---,0.00,280.00,VWS V14.01,2013-02-17 21:40:00,
2013-02-17 15:41:00,66.4,26.4,29.48,North,0,14.0,27.0,22,0.00,,---,0.00,241.00,VWS V14.01,2013-02-17 21:41:00,
2013-02-17 15:45:00,66.4,27.5,29.48,West,270,19.0,27.0,23,0.00,,---,0.00,241.00,VWS V14.01,2013-02-17 21:45:00,
2013-02-17 15:46:00,66.4,26.4,29.48,NW,305,22.0,25.0,22,0.00,,---,0.00,273.00,VWS V14.01,2013-02-17 21:46:00,
2013-02-17 15:50:00,66.4,27.5,29.48,SSW,198,14.0,25.0,23,0.00,,---,0.00,232.00,VWS V14.01,2013-02-17 21:50:00,
2013-02-17 15:51:00,66.4,26.4,29.48,West,270,22.0,29.0,22,0.00,,---,0.00,264.00,VWS V14.01,2013-02-17 21:51:00,
2013-02-17 15:55:00,66.4,26.4,29.48,WSW,248,25.0,29.0,22,0.00,,---,0.00,313.00,VWS V14.01,2013-02-17 21:55:00,
2013-02-17 15:56:00,66.6,26.6,29.48,NW,319,11.0,25.0,22,0.00,,---,0.00,248.00,VWS V14.01,2013-02-17 21:56:00,
2013-02-17 16:00:00,66.6,26.6,29.47,West,263,15.0,25.0,22,0.00,,---,0.00,232.00,VWS V14.01,2013-02-17 22:00:00,
2013-02-17 16:01:00,66.6,26.6,29.47,WNW,296,20.0,25.0,22,0.00,,---,0.00,232.00,VWS V14.01,2013-02-17 22:01:00,
2013-02-17 16:05:00,66.4,26.4,29.47,West,267,21.0,25.0,22,0.00,,---,0.00,211.00,VWS V14.01,2013-02-17 22:05:00,
2013-02-17 16:06:00,66.3,27.4,29.47,WSW,241,16.0,22.0,23,0.00,,---,0.00,197.00,VWS V14.01,2013-02-17 22:06:00,
2013-02-17 16:10:00,66.0,27.2,29.47,NNW,335,17.0,25.0,23,0.00,,---,0.00,194.00,VWS V14.01,2013-02-17 22:10:00,
2013-02-17 16:11:00,66.0,27.2,29.47,WNW,282,17.0,25.0,23,0.00,,---,0.00,204.00,VWS V14.01,2013-02-17 22:11:00,
2013-02-17 16:15:00,65.8,27.0,29.47,WSW,248,24.0,26.0,23,0.00,,---,0.00,185.00,VWS V14.01,2013-02-17 22:15:00,
2013-02-17 16:17:00,65.8,27.0,29.47,NW,316,20.0,24.0,23,0.00,,---,0.00,181.00,VWS V14.01,2013-02-17 22:17:00,
2013-02-17 16:20:00,65.6,27.9,29.47,NNW,339,10.0,24.0,24,0.00,,---,0.00,185.00,VWS V14.01,2013-02-17 22:20:00,
2013-02-17 16:22:00,65.6,27.9,29.47,North,349,10.0,14.0,24,0.00,,---,0.00,183.00,VWS V14.01,2013-02-17 22:22:00,
2013-02-17 16:25:00,65.6,27.9,29.47,North,357,13.0,16.0,24,0.00,,---,0.00,185.00,VWS V14.01,2013-02-17 22:25:00,
2013-02-17 16:27:00,65.6,27.9,29.47,NNW,340,8.0,16.0,24,0.00,,---,0.00,183.00,VWS V14.01,2013-02-17 22:27:00,
2013-02-17 16:30:00,62.1,28.6,29.45,SSW,203,16.0,21.0,28,0.00,,---,0.00,51.00,VWS V14.01,2013-02-17 22:30:00,
2013-02-17 16:32:00,65.6,27.9,29.46,South,171,15.0,18.0,24,0.00,,---,0.00,176.00,VWS V14.01,2013-02-17 22:32:00,
2013-02-17 16:35:00,65.6,27.9,29.46,SSW,198,12.0,18.0,24,0.00,,---,0.00,169.00,VWS V14.01,2013-02-17 22:35:00,
2013-02-17 16:37:00,65.6,27.9,29.46,West,280,16.0,20.0,24,0.00,,---,0.00,167.00,VWS V14.01,2013-02-17 22:37:00,
2013-02-17 16:40:00,65.6,27.9,29.46,WSW,250,11.0,24.0,24,0.00,,---,0.00,165.00,VWS V14.01,2013-02-17 22:40:00,
2013-02-17 16:42:00,65.6,27.9,29.46,WSW,256,12.0,20.0,24,0.00,,---,0.00,162.00,VWS V14.01,2013-02-17 22:42:00,
2013-02-17 16:45:00,65.6,27.9,29.46,North,0,15.0,20.0,24,0.00,,---,0.00,160.00,VWS V14.01,2013-02-17 22:45:00,
2013-02-17 16:47:00,65.6,27.9,29.46,NW,312,12.0,20.0,24,0.00,,---,0.00,164.00,VWS V14.01,2013-02-17 22:47:00,
2013-02-17 16:50:00,65.5,27.8,29.46,NW,323,10.0,20.0,24,0.00,,---,0.00,153.00,VWS V14.01,2013-02-17 22:50:00,
2013-02-17 16:52:00,65.5,26.8,29.46,NNW,346,19.0,24.0,23,0.00,,---,0.00,148.00,VWS V14.01,2013-02-17 22:52:00,
2013-02-17 16:55:00,65.5,26.8,29.46,North,353,17.0,27.0,23,0.00,,---,0.00,134.00,VWS V14.01,2013-02-17 22:55:00,
2013-02-17 16:57:00,65.3,26.6,29.46,North,0,18.0,26.0,23,0.00,,---,0.00,118.00,VWS V14.01,2013-02-17 22:57:00,
2013-02-17 17:00:00,65.2,27.5,29.45,West,264,27.0,27.0,24,0.00,,---,0.00,113.00,VWS V14.01,2013-02-17 23:00:00,
2013-02-17 17:03:00,65.0,27.4,29.45,North,0,15.0,27.0,24,0.00,,---,0.00,106.00,VWS V14.01,2013-02-17 23:03:00,
2013-02-17 17:05:00,64.8,27.2,29.45,SW,236,13.0,27.0,24,0.00,,---,0.00,102.00,VWS V14.01,2013-02-17 23:05:00,
2013-02-17 17:08:00,64.3,27.8,29.45,WSW,243,20.0,20.0,25,0.00,,---,0.00,84.00,VWS V14.01,2013-02-17 23:08:00,
2013-02-17 17:10:00,64.2,27.7,29.45,SW,230,14.0,21.0,25,0.00,,---,0.00,83.00,VWS V14.01,2013-02-17 23:10:00,
2013-02-17 17:13:00,63.9,27.4,29.45,WNW,288,18.0,25.0,25,0.00,,---,0.00,70.00,VWS V14.01,2013-02-17 23:13:00,
2013-02-17 17:15:00,63.7,27.2,29.45,SW,232,15.0,25.0,25,0.00,,---,0.00,69.00,VWS V14.01,2013-02-17 23:15:00,
2013-02-17 17:18:00,63.2,27.8,29.45,SW,220,17.0,24.0,26,0.00,,---,0.00,62.00,VWS V14.01,2013-02-17 23:18:00,
2013-02-17 17:20:00,63.1,27.7,29.45,West,268,19.0,24.0,26,0.00,,---,0.00,62.00,VWS V14.01,2013-02-17 23:20:00,
2013-02-17 17:23:00,62.7,28.3,29.45,NNW,339,15.0,29.0,27,0.00,,---,0.00,56.00,VWS V14.01,2013-02-17 23:23:00,
2013-02-17 17:25:00,62.6,28.2,29.45,West,277,12.0,29.0,27,0.00,,---,0.00,55.00,VWS V14.01,2013-02-17 23:25:00,
2013-02-17 17:28:00,62.3,28.8,29.45,West,278,16.0,21.0,28,0.00,,---,0.00,53.00,VWS V14.01,2013-02-17 23:28:00,
2013-02-17 17:30:00,62.1,28.6,29.45,SSW,203,16.0,21.0,28,0.00,,---,0.00,51.00,VWS V14.01,2013-02-17 23:30:00,
2013-02-17 17:33:00,61.8,28.4,29.45,North,0,17.0,18.0,28,0.00,,---,0.00,48.00,VWS V14.01,2013-02-17 23:33:00,
2013-02-17 17:35:00,61.8,28.4,29.45,SW,230,14.0,18.0,28,0.00,,---,0.00,46.00,VWS V14.01,2013-02-17 23:35:00,
2013-02-17 17:38:00,61.5,28.1,29.45,NW,316,17.0,17.0,28,0.00,,---,0.00,42.00,VWS V14.01,2013-02-17 23:38:00,
2013-02-17 17:40:00,61.5,29.0,29.45,WSW,239,12.0,17.0,29,0.00,,---,0.00,42.00,VWS V14.01,2013-02-17 23:40:00,
2013-02-17 17:43:00,61.2,28.7,29.45,North,357,10.0,18.0,29,0.00,,---,0.00,37.00,VWS V14.01,2013-02-17 23:43:00,
2013-02-17 17:45:00,61.0,29.4,29.45,WNW,291,12.0,18.0,30,0.00,,---,0.00,28.00,VWS V14.01,2013-02-17 23:45:00,
2013-02-17 17:48:00,60.7,29.1,29.45,North,0,11.0,18.0,30,0.00,,---,0.00,25.00,VWS V14.01,2013-02-17 23:48:00,
2013-02-17 17:50:00,60.5,28.9,29.45,SSE,167,10.0,18.0,30,0.00,,---,0.00,25.00,VWS V14.01,2013-02-17 23:50:00,
2013-02-17 17:53:00,60.4,29.6,29.45,SSW,210,12.0,16.0,31,0.00,,---,0.00,19.00,VWS V14.01,2013-02-17 23:53:00,
2013-02-17 17:55:00,60.4,29.6,29.45,SW,219,16.0,16.0,31,0.00,,---,0.00,19.00,VWS V14.01,2013-02-17 23:55:00,
2013-02-17 17:58:00,59.9,29.2,29.45,North,0,14.0,20.0,31,0.00,,---,0.00,16.00,VWS V14.01,2013-02-17 23:58:00,
2013-02-17 18:00:00,59.9,29.2,29.45,WSW,248,13.0,20.0,31,0.00,,---,0.00,16.00,VWS V14.01,2013-02-18 00:00:00,
2013-02-17 18:04:00,59.6,29.7,29.45,NW,325,12.0,18.0,32,0.00,,---,0.00,9.00,VWS V14.01,2013-02-18 00:04:00,
2013-02-17 18:05:00,59.6,29.7,29.45,WNW,294,15.0,18.0,32,0.00,,---,0.00,9.00,VWS V14.01,2013-02-18 00:05:00,
2013-02-17 18:09:00,59.2,29.4,29.45,NW,320,12.0,17.0,32,0.00,,---,0.00,0.00,VWS V14.01,2013-02-18 00:09:00,
2013-02-17 18:10:00,59.2,29.4,29.45,West,270,10.0,17.0,32,0.00,,---,0.00,0.00,VWS V14.01,2013-02-18 00:10:00,
2013-02-17 18:14:00,58.7,29.7,29.45,SSW,209,8.0,14.0,33,0.00,,---,0.00,0.00,VWS V14.01,2013-02-18 00:14:00,
2013-02-17 18:15:00,58.7,29.7,29.45,SSW,195,9.0,14.0,33,0.00,,---,0.00,0.00,VWS V14.01,2013-02-18 00:15:00,
2013-02-17 18:19:00,58.4,29.4,29.45,NW,326,6.0,12.0,33,0.00,,---,0.00,0.00,VWS V14.01,2013-02-18 00:19:00,
2013-02-17 18:20:00,58.4,29.4,29.45,North,352,10.0,12.0,33,0.00,,---,0.00,0.00,VWS V14.01,2013-02-18 00:20:00,
2013-02-17 18:24:00,58.1,29.9,29.45,North,349,7.0,12.0,34,0.00,,---,0.00,0.00,VWS V14.01,2013-02-18 00:24:00,
2013-02-17 18:25:00,58.1,29.9,29.45,North,349,7.0,12.0,34,0.00,,---,0.00,0.00,VWS V14.01,2013-02-18 00:25:00,
2013-02-17 18:29:00,57.6,30.2,29.45,North,0,6.0,11.0,35,0.00,,---,0.00,0.00,VWS V14.01,2013-02-18 00:29:00,
2013-02-17 18:30:00,57.6,30.2,29.45,North,0,6.0,11.0,35,0.00,,---,0.00,0.00,VWS V14.01,2013-02-18 00:30:00,
2013-02-17 18:34:00,57.3,29.9,29.45,NW,305,7.0,8.0,35,0.00,,---,0.00,0.00,VWS V14.01,2013-02-18 00:34:00,
2013-02-17 18:35:00,57.3,29.9,29.45,NW,305,7.0,8.0,35,0.00,,---,0.00,0.00,VWS V14.01,2013-02-18 00:35:00,
2013-02-17 18:39:00,56.9,30.2,29.45,NW,311,6.0,7.0,36,0.00,,---,0.00,0.00,VWS V14.01,2013-02-18 00:39:00,
2013-02-17 18:40:00,57.0,30.3,29.45,North,0,7.0,8.0,36,0.00,,---,0.00,0.00,VWS V14.01,2013-02-18 00:40:00,
2013-02-17 18:44:00,56.5,30.6,29.45,NNW,340,7.0,10.0,37,0.00,,---,0.00,0.00,VWS V14.01,2013-02-18 00:44:00,
2013-02-17 18:45:00,56.5,30.6,29.45,NNW,340,7.0,10.0,37,0.00,,---,0.00,0.00,VWS V14.01,2013-02-18 00:45:00,
2013-02-17 18:49:00,56.2,31.0,29.45,SW,215,7.0,7.0,38,0.00,,---,0.00,0.00,VWS V14.01,2013-02-18 00:49:00,
2013-02-17 18:50:00,56.2,31.0,29.45,North,0,7.0,10.0,38,0.00,,---,0.00,0.00,VWS V14.01,2013-02-18 00:50:00,
2013-02-17 18:54:00,56.0,30.8,29.45,North,350,8.0,8.0,38,0.00,,---,0.00,0.00,VWS V14.01,2013-02-18 00:54:00,
2013-02-17 18:55:00,56.0,30.8,29.45,North,359,5.0,8.0,38,0.00,,---,0.00,0.00,VWS V14.01,2013-02-18 00:55:00,
2013-02-17 18:59:00,55.7,30.5,29.45,North,359,7.0,8.0,38,0.00,,---,0.00,0.00,VWS V14.01,2013-02-18 00:59:00,
2013-02-17 19:00:00,55.7,30.5,29.45,SSE,154,6.0,11.0,38,0.00,,---,0.00,0.00,VWS V14.01,2013-02-18 01:00:00,
2013-02-17 19:04:00,55.3,30.8,29.45,South,169,7.0,7.0,39,0.00,,---,0.00,0.00,VWS V14.01,2013-02-18 01:04:00,
2013-02-17 19:05:00,55.3,30.8,29.45,SSE,168,7.0,8.0,39,0.00,,---,0.00,0.00,VWS V14.01,2013-02-18 01:05:00,
2013-02-17 19:09:00,55.0,30.5,29.45,SW,217,8.0,10.0,39,0.00,,---,0.00,0.00,VWS V14.01,2013-02-18 01:09:00,
2013-02-17 19:10:00,55.0,30.5,29.45,SW,215,8.0,11.0,39,0.00,,---,0.00,0.00,VWS V14.01,2013-02-18 01:10:00,
2013-02-17 19:15:00,55.0,30.5,29.44,NW,313,9.0,11.0,39,0.00,,---,0.00,0.00,VWS V14.01,2013-02-18 01:15:00,
2013-02-17 19:20:00,55.3,29.5,29.44,WSW,256,8.0,12.0,37,0.00,,---,0.00,0.00,VWS V14.01,2013-02-18 01:20:00,
2013-02-17 19:25:00,55.4,28.9,29.44,NNW,337,12.0,14.0,36,0.00,,---,0.00,0.00,VWS V14.01,2013-02-18 01:25:00,
2013-02-17 19:30:00,55.9,28.7,29.44,NW,323,11.0,18.0,35,0.00,,---,0.00,0.00,VWS V14.01,2013-02-18 01:30:00,
2013-02-17 19:35:00,56.6,27.9,29.44,SW,217,12.0,17.0,33,0.00,,---,0.00,0.00,VWS V14.01,2013-02-18 01:35:00,
2013-02-17 19:40:00,57.0,27.5,29.44,SSW,208,16.0,16.0,32,0.00,,---,0.00,0.00,VWS V14.01,2013-02-18 01:40:00,
2013-02-17 19:45:00,57.2,27.6,29.43,West,264,10.0,15.0,32,0.00,,---,0.00,0.00,VWS V14.01,2013-02-18 01:45:00,
2013-02-17 19:50:00,57.2,27.6,29.43,SW,233,12.0,21.0,32,0.00,,---,0.00,0.00,VWS V14.01,2013-02-18 01:50:00,
2013-02-17 19:55:00,57.2,28.4,29.43,North,353,12.0,18.0,33,0.00,,---,0.00,0.00,VWS V14.01,2013-02-18 01:55:00,
2013-02-17 20:00:00,57.0,28.2,29.42,NW,306,14.0,19.0,33,0.00,,---,0.00,0.00,VWS V14.01,2013-02-18 02:00:00,
2013-02-17 20:05:00,57.0,28.2,29.42,WSW,251,18.0,18.0,33,0.00,,---,0.00,0.00,VWS V14.01,2013-02-18 02:05:00,
2013-02-17 20:10:00,57.2,28.4,29.42,West,260,16.0,24.0,33,0.00,,---,0.00,0.00,VWS V14.01,2013-02-18 02:10:00,
2013-02-17 20:15:00,57.3,27.7,29.42,North,0,22.0,25.0,32,0.00,,---,0.00,0.00,VWS V14.01,2013-02-18 02:15:00,
2013-02-17 20:16:00,57.3,27.7,29.42,NW,319,22.0,24.0,32,0.00,,---,0.00,0.00,VWS V14.01,2013-02-18 02:16:00,
2013-02-17 20:20:00,57.5,27.9,29.42,SW,233,18.0,27.0,32,0.00,,---,0.00,0.00,VWS V14.01,2013-02-18 02:20:00,
2013-02-17 20:21:00,57.3,27.7,29.42,WNW,295,21.0,26.0,32,0.00,,---,0.00,0.00,VWS V14.01,2013-02-18 02:21:00,
2013-02-17 20:25:00,57.2,27.6,29.42,North,0,19.0,26.0,32,0.00,,---,0.00,0.00,VWS V14.01,2013-02-18 02:25:00,
2013-02-17 20:26:00,57.2,28.4,29.42,SW,234,18.0,24.0,33,0.00,,---,0.00,0.00,VWS V14.01,2013-02-18 02:26:00,
2013-02-17 20:30:00,57.2,27.6,29.41,NNW,332,21.0,26.0,32,0.00,,---,0.00,0.00,VWS V14.01,2013-02-18 02:30:00,
2013-02-17 20:31:00,57.2,27.6,29.41,SSW,198,18.0,28.0,32,0.00,,---,0.00,0.00,VWS V14.01,2013-02-18 02:31:00,
2013-02-17 20:35:00,57.2,28.4,29.41,NW,323,17.0,28.0,33,0.00,,---,0.00,0.00,VWS V14.01,2013-02-18 02:35:00,
2013-02-17 20:36:00,57.0,28.2,29.41,WSW,253,18.0,25.0,33,0.00,,---,0.00,0.00,VWS V14.01,2013-02-18 02:36:00,
2013-02-17 20:40:00,57.0,28.2,29.41,West,268,18.0,25.0,33,0.00,,---,0.00,0.00,VWS V14.01,2013-02-18 02:40:00,
2013-02-17 20:41:00,56.9,28.1,29.41,West,265,19.0,25.0,33,0.00,,---,0.00,0.00,VWS V14.01,2013-02-18 02:41:00,
2013-02-17 20:45:00,56.7,27.9,29.41,WSW,244,13.0,27.0,33,0.00,,---,0.00,0.00,VWS V14.01,2013-02-18 02:45:00,
2013-02-17 20:46:00,56.6,28.6,29.41,WNW,298,19.0,24.0,34,0.00,,---,0.00,0.00,VWS V14.01,2013-02-18 02:46:00,
2013-02-17 20:50:00,56.3,28.3,29.41,NW,311,17.0,24.0,34,0.00,,---,0.00,0.00,VWS V14.01,2013-02-18 02:50:00,
2013-02-17 20:51:00,56.3,28.3,29.41,West,264,22.0,26.0,34,0.00,,---,0.00,0.00,VWS V14.01,2013-02-18 02:51:00,
2013-02-17 20:55:00,56.0,28.8,29.41,West,265,17.0,27.0,35,0.00,,---,0.00,0.00,VWS V14.01,2013-02-18 02:55:00,
2013-02-17 20:56:00,55.9,28.7,29.41,West,281,18.0,22.0,35,0.00,,---,0.00,0.00,VWS V14.01,2013-02-18 02:56:00,
2013-02-17 21:00:00,55.7,28.5,29.40,SSW,206,19.0,22.0,35,0.00,,---,0.00,0.00,VWS V14.01,2013-02-18 03:00:00,
2013-02-17 21:01:00,55.7,28.5,29.40,WSW,243,18.0,26.0,35,0.00,,---,0.00,0.00,VWS V14.01,2013-02-18 03:01:00,
2013-02-17 21:06:00,55.4,28.2,29.40,SW,216,21.0,25.0,35,0.00,,---,0.00,0.00,VWS V14.01,2013-02-18 03:06:00,
2013-02-17 21:10:00,55.3,28.1,29.40,NNW,333,25.0,25.0,35,0.00,,---,0.00,0.00,VWS V14.01,2013-02-18 03:10:00,
2013-02-17 21:12:00,55.3,28.1,29.40,ESE,116,15.0,27.0,35,0.00,,---,0.00,0.00,VWS V14.01,2013-02-18 03:12:00,
2013-02-17 21:15:00,55.3,28.8,29.39,WSW,240,22.0,27.0,36,0.00,,---,0.00,0.00,VWS V14.01,2013-02-18 03:15:00,
2013-02-17 21:17:00,55.1,28.6,29.39,South,191,20.0,26.0,36,0.00,,---,0.00,0.00,VWS V14.01,2013-02-18 03:17:00,
2013-02-17 21:20:00,55.1,28.6,29.39,South,188,24.0,28.0,36,0.00,,---,0.00,0.00,VWS V14.01,2013-02-18 03:20:00,
2013-02-17 21:22:00,55.1,28.6,29.39,South,179,19.0,25.0,36,0.00,,---,0.00,0.00,VWS V14.01,2013-02-18 03:22:00,
2013-02-17 21:25:00,55.1,28.6,29.39,SSW,202,22.0,25.0,36,0.00,,---,0.00,0.00,VWS V14.01,2013-02-18 03:25:00,
2013-02-17 21:27:00,55.0,28.6,29.39,South,182,21.0,26.0,36,0.00,,---,0.00,0.00,VWS V14.01,2013-02-18 03:27:00,
2013-02-17 21:30:00,54.8,29.0,29.38,NW,309,21.0,26.0,37,0.00,,---,0.00,0.00,VWS V14.01,2013-02-18 03:30:00,
2013-02-17 21:32:00,54.7,29.0,29.38,WNW,296,20.0,27.0,37,0.00,,---,0.00,0.00,VWS V14.01,2013-02-18 03:32:00,
2013-02-17 21:35:00,54.7,29.0,29.38,WSW,258,19.0,27.0,37,0.00,,---,0.00,0.00,VWS V14.01,2013-02-18 03:35:00,
2013-02-17 21:37:00,54.7,29.0,29.38,SW,219,18.0,22.0,37,0.00,,---,0.00,0.00,VWS V14.01,2013-02-18 03:37:00,
2013-02-17 21:40:00,54.5,28.8,29.38,South,191,22.0,31.0,37,0.00,,---,0.00,0.00,VWS V14.01,2013-02-18 03:40:00,
2013-02-17 21:42:00,54.5,28.8,29.38,South,186,20.0,26.0,37,0.00,,---,0.00,0.00,VWS V14.01,2013-02-18 03:42:00,
2013-02-17 21:45:00,54.4,29.3,29.35,SSW,199,18.0,27.0,38,0.00,,---,0.00,0.00,VWS V14.01,2013-02-18 03:45:00,
2013-02-17 21:47:00,54.4,29.3,29.38,SSE,164,16.0,27.0,38,0.00,,---,0.00,0.00,VWS V14.01,2013-02-18 03:47:00,
2013-02-17 21:50:00,54.5,29.4,29.38,SW,233,21.0,28.0,38,0.00,,---,0.00,0.00,VWS V14.01,2013-02-18 03:50:00,
2013-02-17 21:52:00,54.5,29.4,29.38,SSW,206,19.0,24.0,38,0.00,,---,0.00,0.00,VWS V14.01,2013-02-18 03:52:00,
2013-02-17 21:55:00,54.4,30.0,29.38,South,186,17.0,24.0,39,0.00,,---,0.00,0.00,VWS V14.01,2013-02-18 03:55:00,
2013-02-17 21:57:00,54.2,29.8,29.38,WNW,302,12.0,26.0,39,0.00,,---,0.00,0.00,VWS V14.01,2013-02-18 03:57:00,
2013-02-17 22:00:00,54.2,29.8,29.38,North,353,19.0,26.0,39,0.00,,---,0.00,0.00,VWS V14.01,2013-02-18 04:00:00,
2013-02-17 22:02:00,54.2,29.8,29.38,South,181,21.0,22.0,39,0.00,,---,0.00,0.00,VWS V14.01,2013-02-18 04:02:00,
2013-02-17 22:05:00,54.2,29.8,29.38,SSW,210,18.0,22.0,39,0.00,,---,0.00,0.00,VWS V14.01,2013-02-18 04:05:00,
2013-02-17 22:08:00,54.2,29.8,29.38,SSW,202,18.0,26.0,39,0.00,,---,0.00,0.00,VWS V14.01,2013-02-18 04:08:00,
2013-02-17 22:10:00,54.2,29.8,29.38,West,281,16.0,26.0,39,0.00,,---,0.00,0.00,VWS V14.01,2013-02-18 04:10:00,
2013-02-17 22:13:00,54.1,29.7,29.38,SSW,209,18.0,26.0,39,0.00,,---,0.00,0.00,VWS V14.01,2013-02-18 04:13:00,
2013-02-17 22:15:00,54.1,29.7,29.36,South,184,20.0,26.0,39,0.00,,---,0.00,0.00,VWS V14.01,2013-02-18 04:15:00,
2013-02-17 22:18:00,54.1,29.7,29.36,NNW,335,19.0,27.0,39,0.00,,---,0.00,0.00,VWS V14.01,2013-02-18 04:18:00,
2013-02-17 22:20:00,54.1,29.7,29.36,SSW,199,21.0,27.0,39,0.00,,---,0.00,0.00,VWS V14.01,2013-02-18 04:20:00,
2013-02-17 22:23:00,53.9,29.5,29.36,SW,222,19.0,25.0,39,0.00,,---,0.00,0.00,VWS V14.01,2013-02-18 04:23:00,
2013-02-17 22:25:00,53.9,29.5,29.36,WSW,258,21.0,25.0,39,0.00,,---,0.00,0.00,VWS V14.01,2013-02-18 04:25:00,
2013-02-17 22:28:00,54.1,29.7,29.36,SW,229,24.0,26.0,39,0.00,,---,0.00,0.00,VWS V14.01,2013-02-18 04:28:00,
2013-02-17 22:30:00,54.1,29.1,29.35,WSW,253,25.0,27.0,38,0.00,,---,0.00,0.00,VWS V14.01,2013-02-18 04:30:00,
2013-02-17 22:33:00,54.4,29.3,29.35,SW,215,19.0,29.0,38,0.00,,---,0.00,0.00,VWS V14.01,2013-02-18 04:33:00,
2013-02-17 22:35:00,54.4,29.3,29.35,SSW,202,22.0,29.0,38,0.00,,---,0.00,0.00,VWS V14.01,2013-02-18 04:35:00,
2013-02-17 22:38:00,54.4,29.3,29.35,SSW,195,24.0,26.0,38,0.00,,---,0.00,0.00,VWS V14.01,2013-02-18 04:38:00,
2013-02-17 22:40:00,54.4,29.3,29.35,SSE,152,14.0,27.0,38,0.00,,---,0.00,0.00,VWS V14.01,2013-02-18 04:40:00,
2013-02-17 22:43:00,54.4,29.3,29.35,NW,322,21.0,27.0,38,0.00,,---,0.00,0.00,VWS V14.01,2013-02-18 04:43:00,
2013-02-17 22:45:00,53.6,28.0,29.31,SW,222,17.0,33.0,37,0.00,,---,0.00,0.00,VWS V14.01,2013-02-18 04:45:00,
2013-02-17 22:48:00,54.1,29.1,29.35,SSW,210,19.0,25.0,38,0.00,,---,0.00,0.00,VWS V14.01,2013-02-18 04:48:00,
2013-02-17 22:50:00,53.9,28.9,29.35,SSW,213,20.0,25.0,38,0.00,,---,0.00,0.00,VWS V14.01,2013-02-18 04:50:00,
2013-02-17 22:53:00,53.8,28.8,29.35,SSW,195,13.0,27.0,38,0.00,,---,0.00,0.00,VWS V14.01,2013-02-18 04:53:00,
2013-02-17 22:55:00,53.6,28.6,29.35,South,182,17.0,27.0,38,0.00,,---,0.00,0.00,VWS V14.01,2013-02-18 04:55:00,
2013-02-17 22:58:00,53.6,28.6,29.33,SW,234,26.0,29.0,38,0.00,,---,0.00,0.00,VWS V14.01,2013-02-18 04:58:00,
2013-02-17 23:00:00,53.6,28.6,29.33,SW,220,19.0,25.0,38,0.00,,---,0.00,0.00,VWS V14.01,2013-02-18 05:00:00,
2013-02-17 23:01:00,53.6,28.6,29.33,SSW,205,22.0,25.0,38,0.00,,---,0.00,0.00,VWS V14.01,2013-02-18 05:01:00,
2013-02-17 23:05:00,53.6,28.6,29.33,South,188,18.0,29.0,38,0.00,,---,0.00,0.00,VWS V14.01,2013-02-18 05:05:00,
2013-02-17 23:06:00,53.5,28.5,29.33,SSW,203,24.0,27.0,38,0.00,,---,0.00,0.00,VWS V14.01,2013-02-18 05:06:00,
2013-02-17 23:10:00,53.5,28.5,29.33,South,172,16.0,27.0,38,0.00,,---,0.00,0.00,VWS V14.01,2013-02-18 05:10:00,
2013-02-17 23:11:00,53.5,28.5,29.33,West,272,15.0,22.0,38,0.00,,---,0.00,0.00,VWS V14.01,2013-02-18 05:11:00,
2013-02-17 23:15:00,53.3,28.4,29.31,SSW,205,25.0,25.0,38,0.00,,---,0.00,0.00,VWS V14.01,2013-02-18 05:15:00,
2013-02-17 23:16:00,53.3,28.4,29.31,South,184,19.0,25.0,38,0.00,,---,0.00,0.00,VWS V14.01,2013-02-18 05:16:00,
2013-02-17 23:20:00,53.3,28.4,29.31,SW,222,13.0,25.0,38,0.00,,---,0.00,0.00,VWS V14.01,2013-02-18 05:20:00,
2013-02-17 23:21:00,53.3,28.4,29.31,WSW,246,18.0,26.0,38,0.00,,---,0.00,0.00,VWS V14.01,2013-02-18 05:21:00,
2013-02-17 23:25:00,53.5,27.9,29.31,SSW,202,20.0,29.0,37,0.00,,---,0.00,0.00,VWS V14.01,2013-02-18 05:25:00,
2013-02-17 23:26:00,53.6,28.0,29.31,WSW,241,12.0,25.0,37,0.00,,---,0.00,0.00,VWS V14.01,2013-02-18 05:26:00,
2013-02-17 23:30:00,53.5,27.9,29.31,WNW,291,19.0,31.0,37,0.00,,---,0.00,0.00,VWS V14.01,2013-02-18 05:30:00,
2013-02-17 23:31:00,53.5,27.9,29.31,WNW,287,21.0,30.0,37,0.00,,---,0.00,0.00,VWS V14.01,2013-02-18 05:31:00,
2013-02-17 23:35:00,53.5,27.9,29.31,SSW,202,25.0,30.0,37,0.00,,---,0.00,0.00,VWS V14.01,2013-02-18 05:35:00,
2013-02-17 23:36:00,53.5,27.9,29.31,SW,232,30.0,30.0,37,0.00,,---,0.00,0.00,VWS V14.01,2013-02-18 05:36:00,
2013-02-17 23:40:00,53.6,28.0,29.31,SSE,167,21.0,31.0,37,0.00,,---,0.00,0.00,VWS V14.01,2013-02-18 05:40:00,
2013-02-17 23:41:00,53.6,28.0,29.31,SSW,206,28.0,33.0,37,0.00,,---,0.00,0.00,VWS V14.01,2013-02-18 05:41:00,
2013-02-17 23:45:00,53.6,28.0,29.31,SW,222,17.0,33.0,37,0.00,,---,0.00,0.00,VWS V14.01,2013-02-18 05:45:00,
2013-02-17 23:46:00,53.5,27.9,29.31,South,188,21.0,26.0,37,0.00,,---,0.00,0.00,VWS V14.01,2013-02-18 05:46:00,
2013-02-17 23:50:00,53.5,28.5,29.31,SSW,195,27.0,28.0,38,0.00,,---,0.00,0.00,VWS V14.01,2013-02-18 05:50:00,
2013-02-17 23:51:00,53.3,27.7,29.31,South,185,25.0,28.0,37,0.00,,---,0.00,0.00,VWS V14.01,2013-02-18 05:51:00,
2013-02-17 23:55:00,53.2,28.3,29.31,SSW,198,17.0,28.0,38,0.00,,---,0.00,0.00,VWS V14.01,2013-02-18 05:55:00,
2013-02-17 23:56:00,53.1,28.2,29.31,South,186,18.0,25.0,38,0.00,,---,0.00,0.00,VWS V14.01,2013-02-18 05:56:00,